Edmonton, Australia
Current Conditions -  °F | °C
As of 7:00 AM on Saturday 25 Oct 2014 (Local Time) from YBCS Reporting Station
Few Clouds Few Clouds  
Wind Chill: 73°   Ceiling: Unl
Heat Index: 73°   Visibility: 6mi
Dew Point: 59°   Wind: 14mph
Humidity: 61%   Direction: 160°SSE
Pressure: 30.06"   Gusts: NA
Location:  17.02°S, 145.74°E
Report Text: YBCS 242100Z 16012KT 9999 FEW028 23/15 Q1018 NOSIG
Loading
Personal Weather Stations






























Interactive Weather Map
Tropical Storm Tracking
New forecast layout! Learn more

10-Day Weather Forecast

Advertisements
Track Severe Weather on mobile